YBCG/OOL METAR and TAF weather

Enter ICAO airport designator
Station Type Date Time Source
YBCG METAR 2022/01/26 20:00 UTC NOAA

YBCG 262000Z AUTO 20007KT 9999 // SCT048 BKN054 OVC115 23/18 Q1013


Station Type Date Time Source
YBCG Decoded METAR 2022/01/26 20:00 UTC NOAA

Coolangatta Airport Aws, Australia (YBCG) 28-10S 153-30E 6M
Jan 26, 2022 - 03:00 PM EST / 2022.01.26 2000 UTC
Wind: from the SSW (200 degrees) at 8 MPH (7 KT):0
Visibility: greater than 7 mile(s):0
Sky conditions: overcast
Temperature: 73 F (23 C)
Dew Point: 64 F (18 C)
Relative Humidity: 73%
Pressure (altimeter): 29.91 in. Hg (1013 hPa)
ob: YBCG 262000Z AUTO 20007KT 9999 // SCT048 BKN054 OVC115 23/18 Q1013
cycle: 20

Station Type Date Time Source
YBCG TAF 2022/01/26 21:06 UTC NOAA

TAF
AMD TAF YBCG 262005Z 2621/2718 20006KT 9999 SCT040
FM262200 15012KT 9999 SCT035
FM270800 14007KT 9999 -SHRA BKN020

Example: see airport list